Flight Track Log - Related Links

Times and Time Zones

All times are in EDT time to prevent confusion due to time zone crossing. See the SWA1004 flight status page for this flight to view local times or setup timezone preferences in your user account.

Time Position Orientation Groundspeed Altitude Reporting Facility
EDT Latitude Longitude Course Direction KTS MPH feet Rate Location/Type
Sat 03:47:46 PM 29.6583 -95.2647 311° West 151 174 700  Level Houston Center
Sat 03:48:57 PM 29.6947 -95.3136 311° West 206 237 3,000 2,211 Climbing Houston Center
Sat 03:49:59 PM 29.7244 -95.3897 294° West 247 284 5,600 3,122 Climbing Houston Center
Sat 03:51:00 PM 29.7517 -95.4736 291° West 278 320 9,400 2,829 Climbing Houston Center
Sat 03:52:02 PM 29.7736 -95.5628 286° West 289 333 11,400 2,661 Climbing Houston Center
Sat 03:53:04 PM 29.8014 -95.6706 287° West 344 396 14,900 3,242 Climbing Houston Center
Sat 03:54:06 PM 29.8342 -95.8008 286° West 355 409 18,100 2,613 Climbing Houston Center
Sat 03:55:08 PM 29.8611 -95.9100 286° West 358 412 20,300 2,146 Climbing Houston Center
Sat 03:56:09 PM 29.8878 -96.0150 286° West 370 426 22,500 2,146 Climbing Houston Center
Sat 03:57:11 PM 29.9228 -96.1522 286° West 374 430 24,700 1,645 Climbing Houston Center
Sat 03:58:13 PM 29.9486 -96.2744 284° West 391 450 25,900 1,839 Climbing Houston Center
Sat 03:59:15 PM 29.9750 -96.3978 284° West 397 457 28,500 2,537 Climbing Houston Center
Sat 04:00:16 PM 29.9994 -96.5114 284° West 372 428 31,100 1,902 Climbing Houston Center
Sat 04:01:18 PM 30.0239 -96.6222 284° West 361 415 32,400 1,210 Climbing Houston Center
Sat 04:02:20 PM 30.0475 -96.7347 284° West 362 417 33,600 1,548 Climbing Houston Center
Sat 04:03:22 PM 30.0758 -96.8675 284° West 357 411 35,600 1,161 Climbing Houston Center
Sat 04:04:24 PM 30.0992 -96.9750 284° West 349 402 36,000 195 Climbing Houston Center
Sat 04:05:25 PM 30.1061 -97.0894 274° West 343 395 36,000  Level Houston Center
Sat 04:06:27 PM 30.1128 -97.2014 274° West 345 397 36,000  Level Houston Center
Sat 04:07:29 PM 30.1208 -97.3142 275° West 347 399 36,000  Level Houston Center
Sat 04:08:31 PM 30.1436 -97.4247 283° West 348 400 36,000  Level Houston Center
Sat 04:09:33 PM 30.1672 -97.5342 284° West 348 400 36,000  Level Houston Center
Sat 04:10:34 PM 30.1900 -97.6442 283° West 348 400 36,000  Level Houston Center
Sat 04:11:36 PM 30.2144 -97.7539 284° West 349 402 36,000  Level Houston Center
Sat 04:12:38 PM 30.2411 -97.8825 284° West 350 403 36,000  Level Houston Center
Sat 04:13:40 PM 30.2642 -97.9897 284° West 346 398 36,000  Level Houston Center
Sat 04:14:42 PM 30.2864 -98.0975 283° West 346 398 36,000  Level Houston Center
Sat 04:15:44 PM 30.3117 -98.2153 284° West 349 402 36,000  Level Houston Center
Sat 04:16:46 PM 30.3347 -98.3211 284° West 346 398 36,000  Level Houston Center
Sat 04:17:48 PM 30.3561 -98.4300 283° West 344 396 36,000  Level Houston Center
Sat 04:18:49 PM 30.3778 -98.5383 283° West 341 392 36,000  Level Houston Center
Sat 04:19:51 PM 30.4003 -98.6456 284° West 341 392 36,000  Level Houston Center
Sat 04:20:53 PM 30.4219 -98.7542 283° West 343 395 36,000  Level Houston Center
Sat 04:21:55 PM 30.4458 -98.8619 284° West 342 394 36,000  Level Houston Center
Sat 04:22:57 PM 30.4675 -98.9694 283° West 341 392 36,000  Level Houston Center
Sat 04:23:59 PM 30.4936 -99.0942 284° West 339 390 36,000  Level Houston Center
Sat 04:25:01 PM 30.5128 -99.1928 283° West 339 390 36,000  Level Houston Center
Sat 04:26:02 PM 30.5344 -99.2989 283° West 339 390 36,000  Level Houston Center
Sat 04:27:04 PM 30.5556 -99.4050 283° West 338 389 36,000  Level Houston Center
Sat 04:28:06 PM 30.5817 -99.5317 283° West 337 388 36,000  Level Houston Center
Sat 04:29:08 PM 30.6019 -99.6378 283° West 337 388 36,000  Level Houston Center
Sat 04:30:09 PM 30.6236 -99.7433 283° West 339 390 36,000  Level Houston Center
Sat 04:31:11 PM 30.6428 -99.8481 282° West 337 388 36,000  Level Houston Center
Sat 04:32:13 PM 30.6625 -99.9533 282° West 336 387 36,000  Level Houston Center
Sat 04:33:15 PM 30.6839 -100.0578 283° West 337 388 36,000  Level Houston Center
Sat 04:34:17 PM 30.7078 -100.1864 282° West 341 392 36,000  Level Houston Center
Sat 04:35:18 PM 30.7286 -100.2883 283° West 329 379 36,000  Level Houston Center
Sat 04:36:20 PM 30.7492 -100.3933 283° West 332 382 36,000  Level Houston Center
Sat 04:37:22 PM 30.7689 -100.4981 282° West 332 382 36,000  Level Houston Center
Sat 04:38:24 PM 30.7878 -100.6033 282° West 333 383 36,000  Level Houston Center
Sat 04:39:26 PM 30.8072 -100.7067 282° West 330 380 36,000  Level Houston Center
Sat 04:40:28 PM 30.8300 -100.8317 282° West 328 377 36,000  Level Houston Center
Sat 04:41:30 PM 30.8506 -100.9353 283° West 328 377 36,000  Level Houston Center
Sat 04:42:31 PM 30.8692 -101.0389 282° West 329 379 36,000  Level Houston Center
Sat 04:43:33 PM 30.8886 -101.1428 282° West 330 380 36,000  Level Houston Center
Sat 04:44:35 PM 30.9089 -101.2444 283° West 325 374 36,000  Level Houston Center
Sat 04:45:37 PM 30.9300 -101.3619 282° West 326 375 36,000  Level Houston Center
Sat 04:46:39 PM 30.9475 -101.4639 281° West 323 372 36,000  Level Houston Center
Sat 04:47:41 PM 30.9675 -101.5661 283° West 323 372 36,000  Level Houston Center
Sat 04:48:48 PM 30.9883 -101.6897 281° West 325 374 36,000  Level Albuquerque Center
Sat 04:49:50 PM 31.0067 -101.7919 282° West 323 372 36,000  Level Albuquerque Center
Sat 04:50:52 PM 31.0244 -101.8939 282° West 322 371 36,000  Level Albuquerque Center
Sat 04:51:54 PM 31.0439 -102.0008 282° West 329 379 36,000  Level Albuquerque Center
Sat 04:52:55 PM 31.0619 -102.1031 282° West 324 373 36,000  Level Albuquerque Center
Sat 04:53:57 PM 31.0794 -102.2050 281° West 322 371 36,000  Level Albuquerque Center
Sat 04:54:59 PM 31.0978 -102.3072 282° West 322 371 36,000  Level Albuquerque Center
Sat 04:56:01 PM 31.1194 -102.4319 282° West 325 374 36,000  Level Albuquerque Center
Sat 04:57:02 PM 31.1375 -102.5361 281° West 328 377 36,000 -49 Level Albuquerque Center
Sat 04:58:04 PM 31.1550 -102.6444 281° West 328 377 35,900  Descending Albuquerque Center
Sat 04:59:06 PM 31.1731 -102.7469 282° West 325 374 36,000 48 Climbing Albuquerque Center
Sat 05:00:08 PM 31.1897 -102.8447 281° West 314 361 36,000  Level Albuquerque Center
Sat 05:01:09 PM 31.2064 -102.9453 281° West 313 360 36,000  Level Albuquerque Center
Sat 05:02:11 PM 31.2239 -103.0469 281° West 318 366 36,000  Level Albuquerque Center
Sat 05:03:13 PM 31.2411 -103.1481 281° West 318 366 36,000  Level Albuquerque Center
Sat 05:04:15 PM 31.2600 -103.2683 280° West 315 362 36,000  Level Albuquerque Center
Sat 05:05:16 PM 31.2767 -103.3675 281° West 312 359 36,000  Level Albuquerque Center
Sat 05:06:18 PM 31.2933 -103.4667 281° West 312 359 36,000  Level Albuquerque Center
Sat 05:07:20 PM 31.3094 -103.5683 281° West 316 364 36,000  Level Albuquerque Center
Sat 05:08:22 PM 31.3272 -103.6717 281° West 322 371 36,000  Level Albuquerque Center
Sat 05:09:23 PM 31.3469 -103.7886 281° West 328 377 36,000 -49 Level Albuquerque Center
Sat 05:10:25 PM 31.3628 -103.8928 280° West 327 376 35,900  Descending Albuquerque Center
Sat 05:11:27 PM 31.3792 -103.9933 281° West 320 368 36,000 49 Climbing Albuquerque Center
Sat 05:12:28 PM 31.3967 -104.0967 281° West 323 372 36,000  Level Albuquerque Center
Sat 05:13:30 PM 31.4133 -104.2008 281° West 326 375 36,000 -48 Level Albuquerque Center
Sat 05:14:32 PM 31.4303 -104.3044 281° West 327 376 35,900  Descending Albuquerque Center
Sat 05:15:33 PM 31.4453 -104.4050 280° West 320 368 36,000 49 Climbing Albuquerque Center
Sat 05:16:35 PM 31.4608 -104.5289 278° West 322 371 36,000  Level Albuquerque Center
Sat 05:17:36 PM 31.4725 -104.6339 277° West 325 374 36,000  Level Albuquerque Center
Sat 05:18:38 PM 31.4822 -104.7361 276° West 322 371 36,000 -290 Level Albuquerque Center
Sat 05:19:40 PM 31.4933 -104.8347 278° West 312 359 35,400 -1,805 Descending Albuquerque Center
Sat 05:20:41 PM 31.5033 -104.9392 276° West 319 367 32,300 -2,927 Descending Albuquerque Center
Sat 05:21:43 PM 31.5150 -105.0475 277° West 333 383 29,400 -2,537 Descending Albuquerque Center
Sat 05:22:44 PM 31.5244 -105.1517 276° West 328 377 27,100 -2,488 Descending Albuquerque Center
Sat 05:23:46 PM 31.5378 -105.2747 277° West 321 369 24,300 -2,508 Descending Albuquerque Center
Sat 05:24:46 PM 31.5453 -105.3864 275° West 317 365 22,000 -2,294 Descending Albuquerque Center
Sat 05:25:28 PM 31.5539 -105.4542 278° West 312 359 20,400 -2,190 Descending Albuquerque Center
Sat 05:25:49 PM 31.5569 -105.4803 278° West 316 364 19,700 -2,262 Descending Albuquerque Center
Sat 05:26:29 PM 31.5625 -105.5567 275° West 315 362 18,100 -2,164 Descending Albuquerque Center
Sat 05:26:50 PM 31.5664 -105.5817 280° West 316 364 17,500 -2,300 Descending Albuquerque Center
Sat 05:27:29 PM 31.5731 -105.6589 276° West 312 359 15,800 -2,129 Descending Albuquerque Center
Sat 05:27:52 PM 31.5767 -105.6811 281° West 310 357 15,300 -1,770 Descending Albuquerque Center
Sat 05:28:30 PM 31.5839 -105.7508 277° West 291 335 14,000 -1,574 Descending Albuquerque Center
Sat 05:28:53 PM 31.5864 -105.7747 277° West 294 338 13,700 -1,377 Descending Albuquerque Center
Sat 05:29:31 PM 31.6136 -105.8408 296° West 292 336 12,600 -1,548 Descending Albuquerque Center
Sat 05:29:55 PM 31.6231 -105.8606 299° West 293 337 12,100 -2,250 Descending Albuquerque Center
Sat 05:30:19 PM 31.6444 -105.9153 295° West 299 344 10,800 -1,935 Descending Albuquerque Center
Sat 05:30:57 PM 31.6656 -105.9642 297° West 295 339 10,100 -1,082 Descending Albuquerque Center
Sat 05:31:20 PM 31.6789 -105.9964 296° West 278 320 9,700 -1,082 Descending Albuquerque Center
Sat 05:31:58 PM 31.6967 -106.0403 295° West 264 304 9,000 -575 Descending Albuquerque Center
Sat 05:32:33 PM 31.7147 -106.0875 294° West 245 282 9,000 -387 Level Albuquerque Center
Sat 05:33:00 PM 31.7258 -106.1128 297° West 248 285 8,600 -1,400 Descending Albuquerque Center
Sat 05:33:33 PM 31.7456 -106.1619 295° West 248 285 7,600 -1,475 Descending Albuquerque Center
Sat 05:34:01 PM 31.7567 -106.1881 297° West 254 292 7,100 -764 Descending Albuquerque Center
Sat 05:34:28 PM 31.7725 -106.2278 295° West 245 282 6,900  Descending Albuquerque Center
Sat 05:35:03 PM 31.7875 -106.2483 311° West 208 239 7,100 -500 Climbing Albuquerque Center
Sat 05:35:28 PM 31.8036 -106.2700 311° West 151 174 6,400 -1,672 Descending Albuquerque Center
Sat 05:36:04 PM 31.8025 -106.2917 267° West 161 185 5,400 -1,636 Descending Albuquerque Center
Sat 05:36:23 PM 31.7983 -106.3114 256° West 142 163 4,900 -968 Descending Albuquerque Center
Sat 05:37:06 PM 31.7992 -106.3381 272° West 145 167 4,400 -698 Descending Albuquerque Center
Sat 05:39:00 PM 31.8000 -106.3667 270° West  Level FlightAware Approximate
Sat 05:46:00 PM 31.8072 -106.3764 270° West  Level Estimated
Sat 05:47:00 PM 31.8072 -106.3764 270° West  Level Estimated
Sat 05:48:00 PM 31.8072 -106.3764 270° West  Level Estimated

Login

Don't have an account? Register now (free) for customized features, flight alerts, and more!